sensor_id;sensor_type;location;lat;lon;timestamp;P1;durP1;ratioP1;P2;durP2;ratioP2
72037;SDS011;59900;50.788;12.904;2023-08-12T00:00:09;5.72;;;2.90;;
72037;SDS011;59900;50.788;12.904;2023-08-12T00:02:40;6.45;;;2.97;;
72037;SDS011;59900;50.788;12.904;2023-08-12T00:05:06;5.20;;;2.92;;
72037;SDS011;59900;50.788;12.904;2023-08-12T00:07:33;5.10;;;2.70;;
72037;SDS011;59900;50.788;12.904;2023-08-12T00:09:59;6.43;;;2.70;;
72037;SDS011;59900;50.788;12.904;2023-08-12T00:12:29;5.47;;;3.20;;
72037;SDS011;59900;50.788;12.904;2023-08-12T00:14:57;4.78;;;2.50;;
72037;SDS011;59900;50.788;12.904;2023-08-12T00:17:23;7.67;;;3.13;;
72037;SDS011;59900;50.788;12.904;2023-08-12T00:19:48;6.47;;;2.97;;
72037;SDS011;59900;50.788;12.904;2023-08-12T00:22:13;6.20;;;2.83;;
72037;SDS011;59900;50.788;12.904;2023-08-12T00:24:39;5.20;;;2.97;;
72037;SDS011;59900;50.788;12.904;2023-08-12T00:27:05;6.55;;;3.00;;
72037;SDS011;59900;50.788;12.904;2023-08-12T00:29:34;4.68;;;2.80;;
72037;SDS011;59900;50.788;12.904;2023-08-12T00:32:00;7.30;;;3.40;;
72037;SDS011;59900;50.788;12.904;2023-08-12T00:34:26;4.77;;;2.70;;
72037;SDS011;59900;50.788;12.904;2023-08-12T00:36:52;6.03;;;3.40;;
72037;SDS011;59900;50.788;12.904;2023-08-12T00:39:17;4.60;;;2.60;;
72037;SDS011;59900;50.788;12.904;2023-08-12T00:41:43;5.27;;;2.93;;
72037;SDS011;59900;50.788;12.904;2023-08-12T00:44:08;5.10;;;2.67;;
72037;SDS011;59900;50.788;12.904;2023-08-12T00:46:34;6.43;;;3.00;;
72037;SDS011;59900;50.788;12.904;2023-08-12T00:49:00;7.00;;;3.13;;
72037;SDS011;59900;50.788;12.904;2023-08-12T00:51:25;5.60;;;3.10;;
72037;SDS011;59900;50.788;12.904;2023-08-12T00:53:51;6.88;;;3.25;;
72037;SDS011;59900;50.788;12.904;2023-08-12T00:56:17;6.10;;;3.25;;
72037;SDS011;59900;50.788;12.904;2023-08-12T00:58:43;9.50;;;3.13;;
72037;SDS011;59900;50.788;12.904;2023-08-12T01:01:08;7.17;;;3.10;;
72037;SDS011;59900;50.788;12.904;2023-08-12T01:03:36;5.28;;;2.97;;
72037;SDS011;59900;50.788;12.904;2023-08-12T01:06:02;6.10;;;3.33;;
72037;SDS011;59900;50.788;12.904;2023-08-12T01:08:28;7.22;;;3.50;;
72037;SDS011;59900;50.788;12.904;2023-08-12T01:11:05;6.23;;;3.30;;
72037;SDS011;59900;50.788;12.904;2023-08-12T01:13:46;5.47;;;3.00;;
72037;SDS011;59900;50.788;12.904;2023-08-12T01:16:21;6.13;;;3.40;;
72037;SDS011;59900;50.788;12.904;2023-08-12T01:18:47;6.95;;;3.25;;
72037;SDS011;59900;50.788;12.904;2023-08-12T01:21:15;6.60;;;3.15;;
72037;SDS011;59900;50.788;12.904;2023-08-12T01:23:42;5.87;;;3.40;;
72037;SDS011;59900;50.788;12.904;2023-08-12T01:26:08;6.05;;;3.38;;
72037;SDS011;59900;50.788;12.904;2023-08-12T01:28:33;5.60;;;3.50;;
72037;SDS011;59900;50.788;12.904;2023-08-12T01:31:04;5.80;;;2.90;;
72037;SDS011;59900;50.788;12.904;2023-08-12T01:36:39;6.10;;;3.30;;
72037;SDS011;59900;50.788;12.904;2023-08-12T01:39:09;6.28;;;3.30;;
72037;SDS011;59900;50.788;12.904;2023-08-12T01:41:36;5.72;;;3.40;;
72037;SDS011;59900;50.788;12.904;2023-08-12T01:44:02;6.63;;;3.47;;
72037;SDS011;59900;50.788;12.904;2023-08-12T01:46:30;6.65;;;3.78;;
72037;SDS011;59900;50.788;12.904;2023-08-12T01:48:56;9.00;;;3.50;;
72037;SDS011;59900;50.788;12.904;2023-08-12T01:51:21;6.37;;;2.87;;
72037;SDS011;59900;50.788;12.904;2023-08-12T01:53:46;5.33;;;3.37;;
72037;SDS011;59900;50.788;12.904;2023-08-12T01:56:12;6.72;;;3.30;;
72037;SDS011;59900;50.788;12.904;2023-08-12T01:58:39;6.03;;;3.42;;
72037;SDS011;59900;50.788;12.904;2023-08-12T02:01:04;7.60;;;3.27;;
72037;SDS011;59900;50.788;12.904;2023-08-12T02:03:29;5.63;;;3.40;;
72037;SDS011;59900;50.788;12.904;2023-08-12T02:05:55;5.60;;;3.40;;
72037;SDS011;59900;50.788;12.904;2023-08-12T02:08:20;7.47;;;3.30;;
72037;SDS011;59900;50.788;12.904;2023-08-12T02:10:45;5.57;;;3.40;;
72037;SDS011;59900;50.788;12.904;2023-08-12T02:13:10;6.13;;;3.20;;
72037;SDS011;59900;50.788;12.904;2023-08-12T02:15:37;8.73;;;3.33;;
72037;SDS011;59900;50.788;12.904;2023-08-12T02:18:02;5.23;;;3.00;;
72037;SDS011;59900;50.788;12.904;2023-08-12T02:20:29;6.47;;;3.47;;
72037;SDS011;59900;50.788;12.904;2023-08-12T02:22:54;5.23;;;3.07;;
72037;SDS011;59900;50.788;12.904;2023-08-12T02:25:20;7.30;;;3.17;;
72037;SDS011;59900;50.788;12.904;2023-08-12T02:27:45;6.13;;;3.57;;
72037;SDS011;59900;50.788;12.904;2023-08-12T02:30:10;5.93;;;3.17;;
72037;SDS011;59900;50.788;12.904;2023-08-12T02:32:36;6.60;;;3.90;;
72037;SDS011;59900;50.788;12.904;2023-08-12T02:35:01;6.50;;;3.30;;
72037;SDS011;59900;50.788;12.904;2023-08-12T02:37:26;6.20;;;3.43;;
72037;SDS011;59900;50.788;12.904;2023-08-12T02:39:52;6.10;;;3.37;;
72037;SDS011;59900;50.788;12.904;2023-08-12T02:42:17;5.63;;;3.40;;
72037;SDS011;59900;50.788;12.904;2023-08-12T02:44:42;6.70;;;3.30;;
72037;SDS011;59900;50.788;12.904;2023-08-12T02:47:07;5.80;;;3.50;;
72037;SDS011;59900;50.788;12.904;2023-08-12T02:49:33;5.83;;;3.50;;
72037;SDS011;59900;50.788;12.904;2023-08-12T02:51:58;7.57;;;3.37;;
72037;SDS011;59900;50.788;12.904;2023-08-12T02:54:23;6.87;;;3.30;;
72037;SDS011;59900;50.788;12.904;2023-08-12T02:56:49;6.47;;;3.63;;
72037;SDS011;59900;50.788;12.904;2023-08-12T02:59:16;5.90;;;3.20;;
72037;SDS011;59900;50.788;12.904;2023-08-12T03:01:42;6.03;;;3.57;;
72037;SDS011;59900;50.788;12.904;2023-08-12T03:04:07;7.90;;;3.30;;
72037;SDS011;59900;50.788;12.904;2023-08-12T03:06:32;6.97;;;3.47;;
72037;SDS011;59900;50.788;12.904;2023-08-12T03:08:58;5.93;;;3.53;;
72037;SDS011;59900;50.788;12.904;2023-08-12T03:11:23;5.83;;;3.50;;
72037;SDS011;59900;50.788;12.904;2023-08-12T03:13:48;7.23;;;3.53;;
72037;SDS011;59900;50.788;12.904;2023-08-12T03:16:13;7.20;;;3.47;;
72037;SDS011;59900;50.788;12.904;2023-08-12T03:18:39;6.18;;;3.20;;
72037;SDS011;59900;50.788;12.904;2023-08-12T03:21:08;7.13;;;3.23;;
72037;SDS011;59900;50.788;12.904;2023-08-12T03:23:35;6.25;;;3.70;;
72037;SDS011;59900;50.788;12.904;2023-08-12T03:26:01;5.93;;;3.67;;
72037;SDS011;59900;50.788;12.904;2023-08-12T03:28:27;6.50;;;3.67;;
72037;SDS011;59900;50.788;12.904;2023-08-12T03:30:52;6.20;;;3.80;;
72037;SDS011;59900;50.788;12.904;2023-08-12T03:33:18;6.63;;;3.90;;
72037;SDS011;59900;50.788;12.904;2023-08-12T03:35:47;5.43;;;3.00;;
72037;SDS011;59900;50.788;12.904;2023-08-12T03:38:13;6.50;;;3.92;;
72037;SDS011;59900;50.788;12.904;2023-08-12T03:40:39;6.72;;;3.55;;
72037;SDS011;59900;50.788;12.904;2023-08-12T03:43:05;6.27;;;3.70;;
72037;SDS011;59900;50.788;12.904;2023-08-12T03:45:30;6.03;;;3.30;;
72037;SDS011;59900;50.788;12.904;2023-08-12T03:47:55;8.27;;;3.63;;
72037;SDS011;59900;50.788;12.904;2023-08-12T03:50:22;6.72;;;3.90;;
72037;SDS011;59900;50.788;12.904;2023-08-12T03:52:48;6.97;;;3.50;;
72037;SDS011;59900;50.788;12.904;2023-08-12T03:55:13;8.20;;;3.20;;
72037;SDS011;59900;50.788;12.904;2023-08-12T03:57:38;6.77;;;3.70;;
72037;SDS011;59900;50.788;12.904;2023-08-12T04:00:04;7.38;;;3.55;;
72037;SDS011;59900;50.788;12.904;2023-08-12T04:02:32;7.43;;;3.90;;
72037;SDS011;59900;50.788;12.904;2023-08-12T04:04:57;7.60;;;3.70;;
72037;SDS011;59900;50.788;12.904;2023-08-12T04:07:22;7.33;;;3.37;;
72037;SDS011;59900;50.788;12.904;2023-08-12T04:09:47;6.87;;;3.67;;
72037;SDS011;59900;50.788;12.904;2023-08-12T04:12:13;7.87;;;3.77;;
72037;SDS011;59900;50.788;12.904;2023-08-12T04:14:38;6.40;;;3.87;;
72037;SDS011;59900;50.788;12.904;2023-08-12T04:17:05;7.25;;;3.60;;
72037;SDS011;59900;50.788;12.904;2023-08-12T04:19:31;7.03;;;4.10;;
72037;SDS011;59900;50.788;12.904;2023-08-12T04:21:56;6.57;;;3.50;;
72037;SDS011;59900;50.788;12.904;2023-08-12T04:24:21;6.30;;;3.70;;
72037;SDS011;59900;50.788;12.904;2023-08-12T04:26:46;7.93;;;3.60;;
72037;SDS011;59900;50.788;12.904;2023-08-12T04:29:12;6.70;;;3.83;;
72037;SDS011;59900;50.788;12.904;2023-08-12T04:31:37;7.07;;;3.73;;
72037;SDS011;59900;50.788;12.904;2023-08-12T04:34:02;6.17;;;3.63;;
72037;SDS011;59900;50.788;12.904;2023-08-12T04:36:29;8.57;;;3.97;;
72037;SDS011;59900;50.788;12.904;2023-08-12T04:38:54;6.78;;;3.63;;
72037;SDS011;59900;50.788;12.904;2023-08-12T04:41:19;5.67;;;3.53;;
72037;SDS011;59900;50.788;12.904;2023-08-12T04:43:45;5.60;;;3.57;;
72037;SDS011;59900;50.788;12.904;2023-08-12T04:46:10;7.80;;;4.20;;
72037;SDS011;59900;50.788;12.904;2023-08-12T04:48:35;6.63;;;3.50;;
72037;SDS011;59900;50.788;12.904;2023-08-12T04:51:00;7.37;;;3.40;;
72037;SDS011;59900;50.788;12.904;2023-08-12T04:53:27;7.43;;;3.72;;
72037;SDS011;59900;50.788;12.904;2023-08-12T04:55:54;7.70;;;3.93;;
72037;SDS011;59900;50.788;12.904;2023-08-12T04:58:20;6.28;;;3.70;;
72037;SDS011;59900;50.788;12.904;2023-08-12T05:00:46;6.30;;;3.47;;
72037;SDS011;59900;50.788;12.904;2023-08-12T05:03:11;6.53;;;3.73;;
72037;SDS011;59900;50.788;12.904;2023-08-12T05:05:36;7.37;;;4.10;;
72037;SDS011;59900;50.788;12.904;2023-08-12T05:08:02;7.47;;;4.10;;
72037;SDS011;59900;50.788;12.904;2023-08-12T05:10:27;7.57;;;4.10;;
72037;SDS011;59900;50.788;12.904;2023-08-12T05:12:52;5.90;;;3.40;;
72037;SDS011;59900;50.788;12.904;2023-08-12T05:15:19;6.23;;;3.53;;
72037;SDS011;59900;50.788;12.904;2023-08-12T05:17:44;7.68;;;3.60;;
72037;SDS011;59900;50.788;12.904;2023-08-12T05:20:09;7.43;;;4.00;;
72037;SDS011;59900;50.788;12.904;2023-08-12T05:22:35;8.20;;;4.43;;
72037;SDS011;59900;50.788;12.904;2023-08-12T05:25:01;7.70;;;4.43;;
72037;SDS011;59900;50.788;12.904;2023-08-12T05:27:26;8.87;;;4.50;;
72037;SDS011;59900;50.788;12.904;2023-08-12T05:29:51;8.50;;;4.07;;
72037;SDS011;59900;50.788;12.904;2023-08-12T05:32:17;9.50;;;4.53;;
72037;SDS011;59900;50.788;12.904;2023-08-12T05:34:42;7.47;;;3.80;;
72037;SDS011;59900;50.788;12.904;2023-08-12T05:37:07;7.63;;;4.03;;
72037;SDS011;59900;50.788;12.904;2023-08-12T05:39:33;7.05;;;4.30;;
72037;SDS011;59900;50.788;12.904;2023-08-12T05:41:58;6.60;;;3.70;;
72037;SDS011;59900;50.788;12.904;2023-08-12T05:44:23;6.30;;;3.80;;
72037;SDS011;59900;50.788;12.904;2023-08-12T05:46:48;7.20;;;3.57;;
72037;SDS011;59900;50.788;12.904;2023-08-12T05:49:14;5.40;;;3.30;;
72037;SDS011;59900;50.788;12.904;2023-08-12T05:51:39;7.70;;;3.50;;
72037;SDS011;59900;50.788;12.904;2023-08-12T05:54:04;5.43;;;3.37;;
72037;SDS011;59900;50.788;12.904;2023-08-12T05:56:30;5.67;;;3.47;;
72037;SDS011;59900;50.788;12.904;2023-08-12T05:58:55;9.50;;;3.70;;
72037;SDS011;59900;50.788;12.904;2023-08-12T06:01:20;5.73;;;3.27;;
72037;SDS011;59900;50.788;12.904;2023-08-12T06:03:46;6.20;;;3.40;;
72037;SDS011;59900;50.788;12.904;2023-08-12T06:06:11;6.07;;;3.40;;
72037;SDS011;59900;50.788;12.904;2023-08-12T06:08:36;7.17;;;3.27;;
72037;SDS011;59900;50.788;12.904;2023-08-12T06:11:01;8.20;;;3.60;;
72037;SDS011;59900;50.788;12.904;2023-08-12T06:13:26;7.97;;;3.13;;
72037;SDS011;59900;50.788;12.904;2023-08-12T06:15:52;5.80;;;3.30;;
72037;SDS011;59900;50.788;12.904;2023-08-12T06:18:17;5.50;;;3.57;;
72037;SDS011;59900;50.788;12.904;2023-08-12T06:20:42;5.90;;;3.05;;
72037;SDS011;59900;50.788;12.904;2023-08-12T06:23:08;5.20;;;2.77;;
72037;SDS011;59900;50.788;12.904;2023-08-12T06:25:33;5.80;;;3.20;;
72037;SDS011;59900;50.788;12.904;2023-08-12T06:28:01;6.15;;;3.33;;
72037;SDS011;59900;50.788;12.904;2023-08-12T06:30:26;7.23;;;3.17;;
72037;SDS011;59900;50.788;12.904;2023-08-12T06:32:51;5.27;;;3.00;;
72037;SDS011;59900;50.788;12.904;2023-08-12T06:35:17;5.53;;;3.30;;
72037;SDS011;59900;50.788;12.904;2023-08-12T06:37:42;6.67;;;3.17;;
72037;SDS011;59900;50.788;12.904;2023-08-12T06:40:07;5.00;;;2.87;;
72037;SDS011;59900;50.788;12.904;2023-08-12T06:42:33;7.40;;;3.25;;
72037;SDS011;59900;50.788;12.904;2023-08-12T06:44:58;6.27;;;3.13;;
72037;SDS011;59900;50.788;12.904;2023-08-12T06:47:25;6.30;;;3.65;;
72037;SDS011;59900;50.788;12.904;2023-08-12T06:49:52;5.57;;;2.90;;
72037;SDS011;59900;50.788;12.904;2023-08-12T06:52:17;5.90;;;3.00;;
72037;SDS011;59900;50.788;12.904;2023-08-12T06:54:43;5.60;;;3.43;;
72037;SDS011;59900;50.788;12.904;2023-08-12T06:57:08;6.33;;;3.47;;
72037;SDS011;59900;50.788;12.904;2023-08-12T06:59:33;5.50;;;3.10;;
72037;SDS011;59900;50.788;12.904;2023-08-12T07:01:58;6.67;;;3.07;;
72037;SDS011;59900;50.788;12.904;2023-08-12T07:04:24;6.00;;;3.20;;
72037;SDS011;59900;50.788;12.904;2023-08-12T07:06:49;5.80;;;3.40;;
72037;SDS011;59900;50.788;12.904;2023-08-12T07:09:14;6.33;;;3.90;;
72037;SDS011;59900;50.788;12.904;2023-08-12T07:11:40;6.93;;;2.93;;
72037;SDS011;59900;50.788;12.904;2023-08-12T07:14:05;5.60;;;3.33;;
72037;SDS011;59900;50.788;12.904;2023-08-12T07:16:30;6.93;;;3.60;;
72037;SDS011;59900;50.788;12.904;2023-08-12T07:18:55;6.17;;;3.70;;
72037;SDS011;59900;50.788;12.904;2023-08-12T07:21:21;5.57;;;3.50;;
72037;SDS011;59900;50.788;12.904;2023-08-12T07:23:46;8.70;;;3.40;;
72037;SDS011;59900;50.788;12.904;2023-08-12T07:26:11;5.20;;;3.13;;
72037;SDS011;59900;50.788;12.904;2023-08-12T07:28:36;5.57;;;3.00;;
72037;SDS011;59900;50.788;12.904;2023-08-12T07:31:02;6.00;;;3.00;;
72037;SDS011;59900;50.788;12.904;2023-08-12T07:33:27;6.97;;;3.57;;
72037;SDS011;59900;50.788;12.904;2023-08-12T07:35:52;5.93;;;3.27;;
72037;SDS011;59900;50.788;12.904;2023-08-12T07:38:18;6.10;;;3.57;;
72037;SDS011;59900;50.788;12.904;2023-08-12T07:40:43;5.10;;;3.10;;
72037;SDS011;59900;50.788;12.904;2023-08-12T07:43:08;6.43;;;2.90;;
72037;SDS011;59900;50.788;12.904;2023-08-12T07:45:34;7.80;;;3.30;;
72037;SDS011;59900;50.788;12.904;2023-08-12T07:47:59;6.50;;;3.20;;
72037;SDS011;59900;50.788;12.904;2023-08-12T07:50:24;11.33;;;6.10;;
72037;SDS011;59900;50.788;12.904;2023-08-12T07:52:50;5.57;;;3.17;;
72037;SDS011;59900;50.788;12.904;2023-08-12T07:55:16;6.37;;;2.93;;
72037;SDS011;59900;50.788;12.904;2023-08-12T07:57:41;6.22;;;3.28;;
72037;SDS011;59900;50.788;12.904;2023-08-12T08:00:06;6.07;;;3.33;;
72037;SDS011;59900;50.788;12.904;2023-08-12T08:02:33;6.20;;;3.40;;
72037;SDS011;59900;50.788;12.904;2023-08-12T08:04:58;5.70;;;3.30;;
72037;SDS011;59900;50.788;12.904;2023-08-12T08:07:26;5.00;;;3.07;;
72037;SDS011;59900;50.788;12.904;2023-08-12T08:09:51;5.22;;;3.03;;
72037;SDS011;59900;50.788;12.904;2023-08-12T08:12:16;5.20;;;2.77;;
72037;SDS011;59900;50.788;12.904;2023-08-12T08:14:42;5.27;;;2.80;;
72037;SDS011;59900;50.788;12.904;2023-08-12T08:17:07;5.85;;;3.10;;
72037;SDS011;59900;50.788;12.904;2023-08-12T08:19:33;6.63;;;3.07;;
72037;SDS011;59900;50.788;12.904;2023-08-12T08:21:58;5.47;;;2.83;;
72037;SDS011;59900;50.788;12.904;2023-08-12T08:24:23;8.23;;;3.23;;
72037;SDS011;59900;50.788;12.904;2023-08-12T08:26:48;5.50;;;3.07;;
72037;SDS011;59900;50.788;12.904;2023-08-12T08:29:14;10.93;;;3.87;;
72037;SDS011;59900;50.788;12.904;2023-08-12T08:31:39;6.20;;;3.53;;
72037;SDS011;59900;50.788;12.904;2023-08-12T08:34:04;7.60;;;2.60;;
72037;SDS011;59900;50.788;12.904;2023-08-12T08:36:31;5.10;;;2.80;;
72037;SDS011;59900;50.788;12.904;2023-08-12T08:38:56;5.20;;;2.77;;
72037;SDS011;59900;50.788;12.904;2023-08-12T08:41:21;5.60;;;3.03;;
72037;SDS011;59900;50.788;12.904;2023-08-12T08:43:47;4.40;;;2.30;;
72037;SDS011;59900;50.788;12.904;2023-08-12T08:46:14;3.95;;;2.20;;
72037;SDS011;59900;50.788;12.904;2023-08-12T08:48:41;3.63;;;1.80;;
72037;SDS011;59900;50.788;12.904;2023-08-12T08:51:08;4.55;;;1.90;;
72037;SDS011;59900;50.788;12.904;2023-08-12T08:53:37;4.45;;;2.08;;
72037;SDS011;59900;50.788;12.904;2023-08-12T08:56:06;3.92;;;2.25;;
72037;SDS011;59900;50.788;12.904;2023-08-12T08:58:33;3.65;;;2.03;;
72037;SDS011;59900;50.788;12.904;2023-08-12T09:00:59;4.53;;;2.10;;
72037;SDS011;59900;50.788;12.904;2023-08-12T09:03:25;4.35;;;2.15;;
72037;SDS011;59900;50.788;12.904;2023-08-12T09:05:50;4.13;;;1.90;;
72037;SDS011;59900;50.788;12.904;2023-08-12T09:08:17;4.70;;;2.10;;
72037;SDS011;59900;50.788;12.904;2023-08-12T09:10:43;4.40;;;2.10;;
72037;SDS011;59900;50.788;12.904;2023-08-12T09:13:09;4.50;;;2.03;;
72037;SDS011;59900;50.788;12.904;2023-08-12T09:15:35;4.30;;;2.10;;
72037;SDS011;59900;50.788;12.904;2023-08-12T09:18:00;3.53;;;2.00;;
72037;SDS011;59900;50.788;12.904;2023-08-12T09:20:25;4.73;;;2.07;;
72037;SDS011;59900;50.788;12.904;2023-08-12T09:22:55;4.13;;;2.25;;
72037;SDS011;59900;50.788;12.904;2023-08-12T09:25:22;3.92;;;2.10;;
72037;SDS011;59900;50.788;12.904;2023-08-12T09:27:48;3.90;;;1.93;;
72037;SDS011;59900;50.788;12.904;2023-08-12T09:30:14;5.30;;;2.35;;
72037;SDS011;59900;50.788;12.904;2023-08-12T09:32:39;4.97;;;2.20;;
72037;SDS011;59900;50.788;12.904;2023-08-12T09:35:04;4.10;;;2.17;;
72037;SDS011;59900;50.788;12.904;2023-08-12T09:37:31;5.05;;;2.33;;
72037;SDS011;59900;50.788;12.904;2023-08-12T09:39:56;4.23;;;2.10;;
72037;SDS011;59900;50.788;12.904;2023-08-12T09:42:23;3.33;;;1.70;;
72037;SDS011;59900;50.788;12.904;2023-08-12T09:44:48;4.10;;;2.20;;
72037;SDS011;59900;50.788;12.904;2023-08-12T09:47:13;3.80;;;1.80;;
72037;SDS011;59900;50.788;12.904;2023-08-12T09:49:39;7.17;;;3.80;;
72037;SDS011;59900;50.788;12.904;2023-08-12T09:52:05;2.83;;;1.60;;
72037;SDS011;59900;50.788;12.904;2023-08-12T09:54:32;3.80;;;1.67;;
72037;SDS011;59900;50.788;12.904;2023-08-12T09:56:58;7.67;;;2.77;;
72037;SDS011;59900;50.788;12.904;2023-08-12T09:59:27;3.25;;;1.73;;
72037;SDS011;59900;50.788;12.904;2023-08-12T10:01:56;3.00;;;1.70;;
72037;SDS011;59900;50.788;12.904;2023-08-12T10:04:22;5.13;;;1.95;;
72037;SDS011;59900;50.788;12.904;2023-08-12T10:06:51;4.68;;;1.80;;
72037;SDS011;59900;50.788;12.904;2023-08-12T10:09:17;3.47;;;2.00;;
72037;SDS011;59900;50.788;12.904;2023-08-12T10:11:43;4.13;;;1.75;;
72037;SDS011;59900;50.788;12.904;2023-08-12T10:14:09;3.43;;;1.73;;
72037;SDS011;59900;50.788;12.904;2023-08-12T10:16:35;4.95;;;2.03;;
72037;SDS011;59900;50.788;12.904;2023-08-12T10:19:01;3.83;;;1.98;;
72037;SDS011;59900;50.788;12.904;2023-08-12T10:21:27;3.47;;;1.70;;
72037;SDS011;59900;50.788;12.904;2023-08-12T10:23:53;3.87;;;2.00;;
72037;SDS011;59900;50.788;12.904;2023-08-12T10:26:19;4.53;;;2.10;;
72037;SDS011;59900;50.788;12.904;2023-08-12T10:28:44;3.67;;;1.80;;
72037;SDS011;59900;50.788;12.904;2023-08-12T10:31:11;3.87;;;1.83;;
72037;SDS011;59900;50.788;12.904;2023-08-12T10:33:40;3.67;;;1.92;;
72037;SDS011;59900;50.788;12.904;2023-08-12T10:36:06;3.13;;;1.90;;
72037;SDS011;59900;50.788;12.904;2023-08-12T10:38:32;4.50;;;1.75;;
72037;SDS011;59900;50.788;12.904;2023-08-12T10:41:14;3.57;;;1.70;;
72037;SDS011;59900;50.788;12.904;2023-08-12T10:46:22;4.38;;;1.92;;
72037;SDS011;59900;50.788;12.904;2023-08-12T10:49:07;3.45;;;1.75;;
72037;SDS011;59900;50.788;12.904;2023-08-12T10:51:50;4.07;;;1.90;;
72037;SDS011;59900;50.788;12.904;2023-08-12T10:54:23;3.30;;;1.67;;
72037;SDS011;59900;50.788;12.904;2023-08-12T11:02:18;3.80;;;1.80;;
72037;SDS011;59900;50.788;12.904;2023-08-12T11:04:51;3.55;;;1.70;;
72037;SDS011;59900;50.788;12.904;2023-08-12T11:07:19;3.30;;;1.57;;
72037;SDS011;59900;50.788;12.904;2023-08-12T11:09:46;3.75;;;1.85;;
72037;SDS011;59900;50.788;12.904;2023-08-12T11:12:28;3.42;;;1.58;;
72037;SDS011;59900;50.788;12.904;2023-08-12T11:14:58;2.83;;;1.63;;
72037;SDS011;59900;50.788;12.904;2023-08-12T11:17:35;3.90;;;1.77;;
72037;SDS011;59900;50.788;12.904;2023-08-12T11:20:03;3.50;;;1.90;;
72037;SDS011;59900;50.788;12.904;2023-08-12T11:22:30;3.03;;;1.42;;
72037;SDS011;59900;50.788;12.904;2023-08-12T11:24:57;4.22;;;1.70;;
72037;SDS011;59900;50.788;12.904;2023-08-12T11:27:23;4.40;;;1.90;;
72037;SDS011;59900;50.788;12.904;2023-08-12T11:29:49;3.57;;;1.80;;
72037;SDS011;59900;50.788;12.904;2023-08-12T11:32:16;3.37;;;1.80;;
72037;SDS011;59900;50.788;12.904;2023-08-12T11:34:42;2.95;;;1.60;;
72037;SDS011;59900;50.788;12.904;2023-08-12T11:37:07;3.33;;;1.80;;
72037;SDS011;59900;50.788;12.904;2023-08-12T11:39:33;2.90;;;1.60;;
72037;SDS011;59900;50.788;12.904;2023-08-12T11:41:59;4.27;;;1.70;;
72037;SDS011;59900;50.788;12.904;2023-08-12T11:44:24;3.27;;;1.57;;
72037;SDS011;59900;50.788;12.904;2023-08-12T11:46:49;4.23;;;1.93;;
72037;SDS011;59900;50.788;12.904;2023-08-12T11:49:15;3.20;;;1.63;;
72037;SDS011;59900;50.788;12.904;2023-08-12T11:51:44;3.33;;;1.75;;
72037;SDS011;59900;50.788;12.904;2023-08-12T11:54:14;5.13;;;1.95;;
72037;SDS011;59900;50.788;12.904;2023-08-12T11:56:40;3.10;;;1.63;;
72037;SDS011;59900;50.788;12.904;2023-08-12T11:59:06;3.83;;;1.93;;
72037;SDS011;59900;50.788;12.904;2023-08-12T12:01:32;2.97;;;1.70;;
72037;SDS011;59900;50.788;12.904;2023-08-12T12:03:59;4.43;;;1.83;;
72037;SDS011;59900;50.788;12.904;2023-08-12T12:06:32;3.53;;;1.70;;
72037;SDS011;59900;50.788;12.904;2023-08-12T12:09:01;4.10;;;1.90;;
72037;SDS011;59900;50.788;12.904;2023-08-12T12:11:31;3.47;;;1.83;;
72037;SDS011;59900;50.788;12.904;2023-08-12T12:14:04;4.95;;;2.10;;
72037;SDS011;59900;50.788;12.904;2023-08-12T12:19:17;3.70;;;1.63;;
72037;SDS011;59900;50.788;12.904;2023-08-12T12:21:47;3.80;;;1.70;;
72037;SDS011;59900;50.788;12.904;2023-08-12T12:24:14;3.85;;;1.90;;
72037;SDS011;59900;50.788;12.904;2023-08-12T12:26:39;4.60;;;1.60;;
72037;SDS011;59900;50.788;12.904;2023-08-12T12:29:06;3.10;;;1.60;;
72037;SDS011;59900;50.788;12.904;2023-08-12T12:31:35;3.80;;;1.67;;
72037;SDS011;59900;50.788;12.904;2023-08-12T12:34:01;3.20;;;1.70;;
72037;SDS011;59900;50.788;12.904;2023-08-12T12:36:28;4.13;;;1.80;;
72037;SDS011;59900;50.788;12.904;2023-08-12T12:38:54;4.40;;;1.90;;
72037;SDS011;59900;50.788;12.904;2023-08-12T12:41:19;3.67;;;1.90;;
72037;SDS011;59900;50.788;12.904;2023-08-12T12:43:44;4.23;;;1.50;;
72037;SDS011;59900;50.788;12.904;2023-08-12T12:46:10;4.67;;;1.83;;
72037;SDS011;59900;50.788;12.904;2023-08-12T12:48:35;3.57;;;1.60;;
72037;SDS011;59900;50.788;12.904;2023-08-12T12:51:01;2.80;;;1.60;;
72037;SDS011;59900;50.788;12.904;2023-08-12T12:53:26;3.30;;;1.80;;
72037;SDS011;59900;50.788;12.904;2023-08-12T12:55:51;4.23;;;2.10;;
72037;SDS011;59900;50.788;12.904;2023-08-12T12:58:17;3.70;;;1.67;;
72037;SDS011;59900;50.788;12.904;2023-08-12T13:00:42;3.77;;;2.00;;
72037;SDS011;59900;50.788;12.904;2023-08-12T13:03:07;3.60;;;1.93;;
72037;SDS011;59900;50.788;12.904;2023-08-12T13:05:33;3.80;;;1.70;;
72037;SDS011;59900;50.788;12.904;2023-08-12T13:07:58;3.97;;;1.73;;
72037;SDS011;59900;50.788;12.904;2023-08-12T13:10:23;3.27;;;1.80;;
72037;SDS011;59900;50.788;12.904;2023-08-12T13:12:48;4.17;;;1.83;;
72037;SDS011;59900;50.788;12.904;2023-08-12T13:15:14;2.90;;;1.80;;
72037;SDS011;59900;50.788;12.904;2023-08-12T13:17:39;3.10;;;1.60;;
72037;SDS011;59900;50.788;12.904;2023-08-12T13:20:05;4.15;;;1.92;;
72037;SDS011;59900;50.788;12.904;2023-08-12T13:22:31;3.30;;;1.57;;
72037;SDS011;59900;50.788;12.904;2023-08-12T13:24:56;3.23;;;1.60;;
72037;SDS011;59900;50.788;12.904;2023-08-12T13:27:21;4.80;;;1.60;;
72037;SDS011;59900;50.788;12.904;2023-08-12T13:29:47;3.60;;;1.93;;
72037;SDS011;59900;50.788;12.904;2023-08-12T13:32:12;3.03;;;1.77;;
72037;SDS011;59900;50.788;12.904;2023-08-12T13:34:37;3.00;;;1.50;;
72037;SDS011;59900;50.788;12.904;2023-08-12T13:37:03;4.37;;;2.10;;
72037;SDS011;59900;50.788;12.904;2023-08-12T13:39:28;3.57;;;1.83;;
72037;SDS011;59900;50.788;12.904;2023-08-12T13:41:53;4.13;;;1.50;;
72037;SDS011;59900;50.788;12.904;2023-08-12T13:44:19;4.85;;;1.77;;
72037;SDS011;59900;50.788;12.904;2023-08-12T13:46:45;3.20;;;1.50;;
72037;SDS011;59900;50.788;12.904;2023-08-12T13:49:10;4.17;;;1.80;;
72037;SDS011;59900;50.788;12.904;2023-08-12T13:51:36;4.88;;;1.70;;
72037;SDS011;59900;50.788;12.904;2023-08-12T13:54:02;4.37;;;1.63;;
72037;SDS011;59900;50.788;12.904;2023-08-12T13:56:27;4.37;;;1.83;;
72037;SDS011;59900;50.788;12.904;2023-08-12T13:58:52;4.65;;;2.03;;
72037;SDS011;59900;50.788;12.904;2023-08-12T14:01:19;3.80;;;2.10;;
72037;SDS011;59900;50.788;12.904;2023-08-12T14:03:44;4.50;;;1.90;;
72037;SDS011;59900;50.788;12.904;2023-08-12T14:06:09;3.77;;;1.90;;
72037;SDS011;59900;50.788;12.904;2023-08-12T14:08:34;4.07;;;1.67;;
72037;SDS011;59900;50.788;12.904;2023-08-12T14:11:00;4.00;;;2.03;;
72037;SDS011;59900;50.788;12.904;2023-08-12T14:13:25;5.30;;;1.83;;
72037;SDS011;59900;50.788;12.904;2023-08-12T14:15:50;3.60;;;2.20;;
72037;SDS011;59900;50.788;12.904;2023-08-12T14:18:15;4.23;;;2.00;;
72037;SDS011;59900;50.788;12.904;2023-08-12T14:20:41;5.50;;;2.27;;
72037;SDS011;59900;50.788;12.904;2023-08-12T14:23:06;4.47;;;2.17;;
72037;SDS011;59900;50.788;12.904;2023-08-12T14:25:33;3.60;;;2.20;;
72037;SDS011;59900;50.788;12.904;2023-08-12T14:27:58;5.00;;;2.10;;
72037;SDS011;59900;50.788;12.904;2023-08-12T14:30:24;4.20;;;2.10;;
72037;SDS011;59900;50.788;12.904;2023-08-12T14:32:53;6.45;;;1.98;;
72037;SDS011;59900;50.788;12.904;2023-08-12T14:35:18;5.13;;;2.00;;
72037;SDS011;59900;50.788;12.904;2023-08-12T14:37:44;3.67;;;2.00;;
72037;SDS011;59900;50.788;12.904;2023-08-12T14:40:09;4.47;;;2.00;;